サンフランシスコ の空港の天気 - METARとTAF

サンフランシスコ国際空港 ( KSFO / SFO ) - アメリカ合衆国 カリフォルニア州サンマテオ郡
飛行場実況気象(Metar)
観測時間07/28 04:56 PDT (07/28 11:56 UTC)
風向・風速西北西 6m/s
視程10km以上
天気現象
少しの雲 雲底高度 210m
気温14.4℃
湿度84%
気圧1012.1hPa
METARKSFO 281156Z 29012KT 10SM FEW007 14/12 A2989 RMK AO2 SLP121 T01440117 10156 20139 56003 $
過去の天気等 Google飛行場航空写真 Wunderground天気予報

過去48時間のMETAR

飛行場予報(TAF)
発表時間: 7/28 04:34 PDT (7/28 11:34 UTC)
予報対象時間: 28日5時 PDT ~ 29日11時 PDT
風向・風速西北西 6m/s
視程10km以上
少しの雲 雲底高度 210m
28日12時 PDT から
風向・風速北西 6m/s
視程10km以上
なし
28日14時 PDT から
風向・風速西北西 10m/s
視程10km以上
なし
28日21時 PDT から
風向・風速西北西 6m/s
視程10km以上
少しの雲 雲底高度 300m
29日2時 PDT から
風向・風速西北西 4m/s
視程10km以上
全天を覆う雲 雲底高度 270m
29日5時 PDT から
風向・風速西 4m/s
視程10km以上
全天を覆う雲 雲底高度 210m
KSFO 281134Z 2812/2918 29011KT P6SM FEW007
FM281900 31012KT P6SM SKC
FM282100 29019KT P6SM SKC
FM290400 29011KT P6SM FEW010
FM290900 29008KT P6SM OVC009
FM291200 28007KT P6SM OVC007